CXA103 NWWE-NWWC
Flight info
| Callsign | CXA103 |
|---|---|
| Flight time | 0h 56m |
| Altitude | FL110 |
| Route | NWWE WE901 OUANA DO56Y DO28Y DO11Y WU191 IWU13 NWWC |
| Aircraft | C130/M-L/L |
Departure
| Time | 2026-05-07 18:41 |
|---|---|
| Airport | Île des Pins Airport (NWWE) |
Arrival
| Time | 2026-05-07 19:38 |
|---|---|
| Airport | Île Art - Waala Airport (NWWC) |
| Time | Latitude | Longitude | Altitude | Speed | Heading |
|---|---|---|---|---|---|
| 2026-05-07 18:31 | -22.59098 | 167.46102 | 326 ft | 0 kts | 294° |
| 2026-05-07 18:39 | -22.59098 | 167.46101 | 327 ft | 0 kts | 294° |
| 2026-05-07 18:40 | -22.59097 | 167.46101 | 327 ft | 0 kts | 294° |
| 2026-05-07 18:40 | -22.59090 | 167.46083 | 327 ft | 21 kts | 294° |
| 2026-05-07 18:40 | -22.58950 | 167.45749 | 327 ft | 68 kts | 295° |
| 2026-05-07 18:40 | -22.58707 | 167.45164 | 333 ft | 101 kts | 296° |
| 2026-05-07 18:41 | -22.58400 | 167.44385 | 485 ft | 123 kts | 296° |
| 2026-05-07 18:41 | -22.58074 | 167.43571 | 1012 ft | 117 kts | 298° |
| 2026-05-07 18:41 | -22.57420 | 167.42916 | 1285 ft | 142 kts | 335° |
| 2026-05-07 18:41 | -22.56406 | 167.42455 | 1646 ft | 179 kts | 340° |
| 2026-05-07 18:42 | -22.55143 | 167.41774 | 1949 ft | 225 kts | 333° |
| 2026-05-07 18:42 | -22.53718 | 167.40822 | 2224 ft | 256 kts | 328° |
| 2026-05-07 18:42 | -22.52210 | 167.39668 | 2487 ft | 277 kts | 325° |
| 2026-05-07 18:42 | -22.50636 | 167.38366 | 2746 ft | 291 kts | 323° |
| 2026-05-07 18:43 | -22.49025 | 167.36975 | 3001 ft | 301 kts | 322° |
| 2026-05-07 18:43 | -22.47399 | 167.35529 | 3253 ft | 308 kts | 321° |
| 2026-05-07 18:43 | -22.45801 | 167.33964 | 3508 ft | 313 kts | 317° |
| 2026-05-07 18:43 | -22.44240 | 167.32297 | 3762 ft | 317 kts | 315° |
| 2026-05-07 18:44 | -22.42718 | 167.30565 | 4014 ft | 319 kts | 313° |
| 2026-05-07 18:44 | -22.41222 | 167.28789 | 4264 ft | 321 kts | 312° |
| 2026-05-07 18:44 | -22.39744 | 167.26983 | 4514 ft | 323 kts | 311° |
| 2026-05-07 18:44 | -22.38278 | 167.25158 | 4764 ft | 324 kts | 310° |
| 2026-05-07 18:45 | -22.36817 | 167.23316 | 5014 ft | 322 kts | 310° |
| 2026-05-07 18:45 | -22.35421 | 167.21547 | 5255 ft | 318 kts | 310° |
| 2026-05-07 18:45 | -22.34008 | 167.19749 | 5504 ft | 315 kts | 310° |
| 2026-05-07 18:45 | -22.32593 | 167.17948 | 5755 ft | 313 kts | 310° |
| 2026-05-07 18:46 | -22.31190 | 167.16162 | 6006 ft | 312 kts | 310° |
| 2026-05-07 18:46 | -22.29793 | 167.14384 | 6258 ft | 311 kts | 310° |
| 2026-05-07 18:46 | -22.28395 | 167.12607 | 6509 ft | 310 kts | 310° |
| 2026-05-07 18:46 | -22.27007 | 167.10845 | 6758 ft | 310 kts | 310° |
| 2026-05-07 18:47 | -22.25607 | 167.09069 | 7010 ft | 310 kts | 310° |
| 2026-05-07 18:47 | -22.24216 | 167.07307 | 7261 ft | 310 kts | 310° |
| 2026-05-07 18:47 | -22.22819 | 167.05540 | 7513 ft | 310 kts | 310° |
| 2026-05-07 18:47 | -22.21422 | 167.03774 | 7764 ft | 310 kts | 310° |
| 2026-05-07 18:48 | -22.20026 | 167.02009 | 8014 ft | 310 kts | 310° |
| 2026-05-07 18:48 | -22.18626 | 167.00241 | 8263 ft | 311 kts | 309° |
| 2026-05-07 18:48 | -22.17229 | 166.98477 | 8514 ft | 311 kts | 309° |
| 2026-05-07 18:48 | -22.15826 | 166.96707 | 8764 ft | 311 kts | 309° |
| 2026-05-07 18:49 | -22.14418 | 166.94929 | 9018 ft | 311 kts | 309° |
| 2026-05-07 18:49 | -22.13078 | 166.93237 | 9330 ft | 309 kts | 309° |
| 2026-05-07 18:49 | -22.11684 | 166.91502 | 9654 ft | 308 kts | 310° |
| 2026-05-07 18:49 | -22.10248 | 166.89794 | 9980 ft | 307 kts | 311° |
| 2026-05-07 18:50 | -22.08793 | 166.88123 | 10305 ft | 306 kts | 313° |
| 2026-05-07 18:50 | -22.07324 | 166.86478 | 10629 ft | 305 kts | 313° |
| 2026-05-07 18:50 | -22.05840 | 166.84844 | 10861 ft | 308 kts | 314° |
| 2026-05-07 18:50 | -22.04322 | 166.83192 | 10973 ft | 314 kts | 314° |
| 2026-05-07 18:51 | -22.02774 | 166.81519 | 11009 ft | 320 kts | 314° |
| 2026-05-07 18:51 | -22.01190 | 166.79815 | 11016 ft | 325 kts | 314° |
| 2026-05-07 18:51 | -21.99576 | 166.78084 | 11017 ft | 329 kts | 314° |
| 2026-05-07 18:51 | -21.97951 | 166.76342 | 11019 ft | 331 kts | 314° |
| 2026-05-07 18:52 | -21.96324 | 166.74602 | 11020 ft | 333 kts | 314° |
| 2026-05-07 18:52 | -21.94678 | 166.72842 | 11020 ft | 333 kts | 314° |
| 2026-05-07 18:52 | -21.93034 | 166.71084 | 11020 ft | 334 kts | 314° |
| 2026-05-07 18:52 | -21.91392 | 166.69329 | 11020 ft | 334 kts | 314° |
| 2026-05-07 18:53 | -21.89749 | 166.67572 | 11019 ft | 333 kts | 314° |
| 2026-05-07 18:53 | -21.88110 | 166.65836 | 11018 ft | 330 kts | 315° |
| 2026-05-07 18:53 | -21.86415 | 166.64187 | 11020 ft | 328 kts | 318° |
| 2026-05-07 18:53 | -21.84665 | 166.62619 | 11019 ft | 327 kts | 320° |
| 2026-05-07 18:54 | -21.82881 | 166.61121 | 11020 ft | 326 kts | 322° |
| 2026-05-07 18:54 | -21.81066 | 166.59667 | 11019 ft | 325 kts | 323° |
| 2026-05-07 18:54 | -21.79237 | 166.58250 | 11020 ft | 325 kts | 323° |
| 2026-05-07 18:54 | -21.77404 | 166.56858 | 11020 ft | 324 kts | 324° |
| 2026-05-07 18:55 | -21.75549 | 166.55468 | 11018 ft | 325 kts | 324° |
| 2026-05-07 18:55 | -21.73691 | 166.54084 | 11018 ft | 326 kts | 324° |
| 2026-05-07 18:55 | -21.71849 | 166.52683 | 11016 ft | 327 kts | 322° |
| 2026-05-07 18:55 | -21.70117 | 166.51094 | 11019 ft | 327 kts | 316° |
| 2026-05-07 18:56 | -21.68623 | 166.49437 | 11023 ft | 327 kts | 311° |
| 2026-05-07 18:56 | -21.67174 | 166.47555 | 11019 ft | 327 kts | 307° |
| 2026-05-07 18:56 | -21.65840 | 166.45581 | 11019 ft | 327 kts | 304° |
| 2026-05-07 18:56 | -21.64595 | 166.43550 | 11018 ft | 327 kts | 302° |
| 2026-05-07 18:57 | -21.63307 | 166.41530 | 11018 ft | 327 kts | 305° |
| 2026-05-07 18:57 | -21.61936 | 166.39593 | 11018 ft | 326 kts | 307° |
| 2026-05-07 18:57 | -21.60512 | 166.37717 | 11018 ft | 326 kts | 309° |
| 2026-05-07 18:57 | -21.59041 | 166.35864 | 11019 ft | 325 kts | 310° |
| 2026-05-07 18:58 | -21.57550 | 166.34043 | 11016 ft | 325 kts | 311° |
| 2026-05-07 18:58 | -21.56044 | 166.32240 | 11009 ft | 325 kts | 311° |
| 2026-05-07 18:58 | -21.54526 | 166.30448 | 11007 ft | 325 kts | 312° |
| 2026-05-07 18:58 | -21.52999 | 166.28661 | 11007 ft | 325 kts | 312° |
| 2026-05-07 18:59 | -21.51466 | 166.26877 | 11007 ft | 325 kts | 312° |
| 2026-05-07 18:59 | -21.49932 | 166.25100 | 11007 ft | 325 kts | 312° |
| 2026-05-07 18:59 | -21.48402 | 166.23331 | 11007 ft | 325 kts | 312° |
| 2026-05-07 18:59 | -21.46858 | 166.21549 | 11007 ft | 325 kts | 312° |
| 2026-05-07 19:00 | -21.45327 | 166.19784 | 11007 ft | 325 kts | 312° |
| 2026-05-07 19:00 | -21.43782 | 166.18004 | 11007 ft | 325 kts | 312° |
| 2026-05-07 19:00 | -21.42243 | 166.16232 | 11007 ft | 325 kts | 312° |
| 2026-05-07 19:00 | -21.40703 | 166.14460 | 11007 ft | 325 kts | 312° |
| 2026-05-07 19:01 | -21.39164 | 166.12689 | 11007 ft | 325 kts | 312° |
| 2026-05-07 19:01 | -21.37622 | 166.10915 | 11010 ft | 325 kts | 312° |
| 2026-05-07 19:01 | -21.36087 | 166.09151 | 11018 ft | 325 kts | 312° |
| 2026-05-07 19:01 | -21.34549 | 166.07382 | 11020 ft | 325 kts | 312° |
| 2026-05-07 19:02 | -21.33013 | 166.05618 | 11020 ft | 325 kts | 312° |
| 2026-05-07 19:02 | -21.31482 | 166.03858 | 11020 ft | 325 kts | 312° |
| 2026-05-07 19:02 | -21.29938 | 166.02085 | 11020 ft | 325 kts | 312° |
| 2026-05-07 19:02 | -21.28409 | 166.00330 | 11020 ft | 325 kts | 312° |
| 2026-05-07 19:03 | -21.26863 | 165.98556 | 11020 ft | 325 kts | 312° |
| 2026-05-07 19:03 | -21.25329 | 165.96796 | 11020 ft | 325 kts | 312° |
| 2026-05-07 19:03 | -21.23797 | 165.95038 | 11020 ft | 325 kts | 312° |
| 2026-05-07 19:03 | -21.22252 | 165.93266 | 11020 ft | 325 kts | 312° |
| 2026-05-07 19:04 | -21.20715 | 165.91506 | 11020 ft | 325 kts | 312° |
| 2026-05-07 19:04 | -21.19175 | 165.89741 | 11020 ft | 325 kts | 312° |
| 2026-05-07 19:04 | -21.17638 | 165.87979 | 11012 ft | 325 kts | 313° |
| 2026-05-07 19:04 | -21.16098 | 165.86215 | 11004 ft | 325 kts | 313° |
| 2026-05-07 19:05 | -21.14556 | 165.84449 | 11002 ft | 325 kts | 313° |
| 2026-05-07 19:05 | -21.13015 | 165.82686 | 11001 ft | 325 kts | 313° |
| 2026-05-07 19:05 | -21.11471 | 165.80920 | 11001 ft | 325 kts | 313° |
| 2026-05-07 19:05 | -21.09931 | 165.79158 | 11002 ft | 325 kts | 313° |
| 2026-05-07 19:06 | -21.08386 | 165.77393 | 11001 ft | 325 kts | 313° |
| 2026-05-07 19:06 | -21.05303 | 165.73870 | 11001 ft | 325 kts | 313° |
| 2026-05-07 19:06 | -21.03761 | 165.72109 | 11002 ft | 325 kts | 313° |
| 2026-05-07 19:07 | -21.02218 | 165.70347 | 11001 ft | 325 kts | 313° |
| 2026-05-07 19:07 | -21.00673 | 165.68584 | 11002 ft | 325 kts | 313° |
| 2026-05-07 19:07 | -20.99129 | 165.66822 | 11001 ft | 325 kts | 313° |
| 2026-05-07 19:07 | -20.97586 | 165.65061 | 10998 ft | 325 kts | 313° |
| 2026-05-07 19:08 | -20.96050 | 165.63308 | 10996 ft | 325 kts | 313° |
| 2026-05-07 19:08 | -20.94497 | 165.61539 | 10996 ft | 325 kts | 313° |
| 2026-05-07 19:08 | -20.92954 | 165.59781 | 10996 ft | 325 kts | 313° |
| 2026-05-07 19:08 | -20.91410 | 165.58021 | 10996 ft | 325 kts | 313° |
| 2026-05-07 19:09 | -20.89870 | 165.56267 | 10996 ft | 325 kts | 313° |
| 2026-05-07 19:09 | -20.88326 | 165.54510 | 10996 ft | 325 kts | 313° |
| 2026-05-07 19:09 | -20.86781 | 165.52752 | 10996 ft | 325 kts | 313° |
| 2026-05-07 19:09 | -20.85235 | 165.50993 | 10996 ft | 325 kts | 313° |
| 2026-05-07 19:10 | -20.83690 | 165.49236 | 10996 ft | 325 kts | 313° |
| 2026-05-07 19:10 | -20.82147 | 165.47482 | 10996 ft | 325 kts | 313° |
| 2026-05-07 19:10 | -20.80602 | 165.45725 | 10995 ft | 325 kts | 313° |
| 2026-05-07 19:10 | -20.79057 | 165.43970 | 10996 ft | 325 kts | 313° |
| 2026-05-07 19:11 | -20.77509 | 165.42210 | 10996 ft | 327 kts | 313° |
| 2026-05-07 19:11 | -20.75950 | 165.40438 | 10997 ft | 328 kts | 313° |
| 2026-05-07 19:11 | -20.74415 | 165.38651 | 10994 ft | 328 kts | 310° |
| 2026-05-07 19:11 | -20.73054 | 165.36695 | 10998 ft | 329 kts | 304° |
| 2026-05-07 19:12 | -20.71884 | 165.34603 | 10998 ft | 329 kts | 299° |
| 2026-05-07 19:12 | -20.70864 | 165.32424 | 10996 ft | 329 kts | 295° |
| 2026-05-07 19:12 | -20.69953 | 165.30186 | 10996 ft | 330 kts | 292° |
| 2026-05-07 19:12 | -20.69115 | 165.27909 | 10996 ft | 330 kts | 291° |
| 2026-05-07 19:13 | -20.68326 | 165.25614 | 10997 ft | 330 kts | 290° |
| 2026-05-07 19:13 | -20.68013 | 165.24677 | 10996 ft | 330 kts | 290° |
| 2026-05-07 19:14 | -20.67669 | 165.23633 | 10995 ft | 330 kts | 289° |
| 2026-05-07 19:14 | -20.66918 | 165.21325 | 10996 ft | 330 kts | 289° |
| 2026-05-07 19:14 | -20.66127 | 165.19042 | 10995 ft | 328 kts | 292° |
| 2026-05-07 19:14 | -20.65171 | 165.16840 | 10997 ft | 327 kts | 296° |
| 2026-05-07 19:15 | -20.64106 | 165.14710 | 11001 ft | 326 kts | 299° |
| 2026-05-07 19:15 | -20.63047 | 165.12757 | 11004 ft | 325 kts | 301° |
| 2026-05-07 19:15 | -20.61909 | 165.10762 | 11001 ft | 325 kts | 302° |
| 2026-05-07 19:15 | -20.60710 | 165.08727 | 11002 ft | 324 kts | 302° |
| 2026-05-07 19:16 | -20.59498 | 165.06709 | 11001 ft | 324 kts | 303° |
| 2026-05-07 19:16 | -20.58274 | 165.04694 | 11002 ft | 324 kts | 303° |
| 2026-05-07 19:16 | -20.57045 | 165.02685 | 11001 ft | 324 kts | 303° |
| 2026-05-07 19:16 | -20.55813 | 165.00679 | 11002 ft | 324 kts | 303° |
| 2026-05-07 19:17 | -20.54579 | 164.98674 | 11001 ft | 324 kts | 303° |
| 2026-05-07 19:17 | -20.53343 | 164.96667 | 11002 ft | 324 kts | 303° |
| 2026-05-07 19:17 | -20.52108 | 164.94663 | 11001 ft | 324 kts | 303° |
| 2026-05-07 19:17 | -20.50873 | 164.92660 | 11002 ft | 324 kts | 303° |
| 2026-05-07 19:18 | -20.49637 | 164.90655 | 11001 ft | 324 kts | 303° |
| 2026-05-07 19:18 | -20.48401 | 164.88651 | 10997 ft | 324 kts | 303° |
| 2026-05-07 19:18 | -20.47165 | 164.86647 | 10996 ft | 324 kts | 303° |
| 2026-05-07 19:18 | -20.45928 | 164.84640 | 10996 ft | 325 kts | 303° |
| 2026-05-07 19:19 | -20.44690 | 164.82634 | 10996 ft | 325 kts | 303° |
| 2026-05-07 19:19 | -20.43468 | 164.80653 | 10996 ft | 325 kts | 303° |
| 2026-05-07 19:19 | -20.42280 | 164.78727 | 10997 ft | 325 kts | 303° |
| 2026-05-07 19:19 | -20.41042 | 164.76721 | 10996 ft | 325 kts | 303° |
| 2026-05-07 19:20 | -20.39803 | 164.74713 | 10996 ft | 325 kts | 303° |
| 2026-05-07 19:20 | -20.38564 | 164.72707 | 10996 ft | 325 kts | 303° |
| 2026-05-07 19:20 | -20.37323 | 164.70699 | 10996 ft | 325 kts | 303° |
| 2026-05-07 19:20 | -20.36111 | 164.68736 | 10995 ft | 325 kts | 303° |
| 2026-05-07 19:21 | -20.34870 | 164.66729 | 10996 ft | 325 kts | 303° |
| 2026-05-07 19:21 | -20.33629 | 164.64723 | 10996 ft | 325 kts | 303° |
| 2026-05-07 19:21 | -20.32391 | 164.62719 | 10991 ft | 325 kts | 303° |
| 2026-05-07 19:21 | -20.31149 | 164.60712 | 10989 ft | 325 kts | 303° |
| 2026-05-07 19:22 | -20.29906 | 164.58703 | 10989 ft | 325 kts | 303° |
| 2026-05-07 19:22 | -20.28665 | 164.56699 | 10989 ft | 325 kts | 303° |
| 2026-05-07 19:22 | -20.27422 | 164.54693 | 10989 ft | 325 kts | 303° |
| 2026-05-07 19:22 | -20.26180 | 164.52689 | 10988 ft | 325 kts | 303° |
| 2026-05-07 19:23 | -20.24936 | 164.50681 | 10989 ft | 325 kts | 303° |
| 2026-05-07 19:23 | -20.23693 | 164.48678 | 10988 ft | 325 kts | 303° |
| 2026-05-07 19:23 | -20.22450 | 164.46674 | 10989 ft | 325 kts | 303° |
| 2026-05-07 19:23 | -20.21207 | 164.44670 | 10962 ft | 326 kts | 303° |
| 2026-05-07 19:24 | -20.19947 | 164.42641 | 10784 ft | 331 kts | 303° |
| 2026-05-07 19:24 | -20.18678 | 164.40597 | 10585 ft | 332 kts | 303° |
| 2026-05-07 19:24 | -20.17407 | 164.38552 | 10384 ft | 332 kts | 303° |
| 2026-05-07 19:24 | -20.16151 | 164.36531 | 10182 ft | 324 kts | 303° |
| 2026-05-07 19:25 | -20.14923 | 164.34557 | 9980 ft | 316 kts | 303° |
| 2026-05-07 19:25 | -20.13736 | 164.32650 | 9775 ft | 304 kts | 303° |
| 2026-05-07 19:25 | -20.12590 | 164.30808 | 9573 ft | 295 kts | 303° |
| 2026-05-07 19:25 | -20.11473 | 164.29014 | 9371 ft | 288 kts | 303° |
| 2026-05-07 19:26 | -20.10380 | 164.27258 | 9170 ft | 284 kts | 303° |
| 2026-05-07 19:26 | -20.09298 | 164.25521 | 8969 ft | 280 kts | 303° |
| 2026-05-07 19:26 | -20.08229 | 164.23803 | 8769 ft | 278 kts | 303° |
| 2026-05-07 19:26 | -20.07166 | 164.22096 | 8567 ft | 276 kts | 303° |
| 2026-05-07 19:27 | -20.06110 | 164.20401 | 8365 ft | 275 kts | 302° |
| 2026-05-07 19:27 | -20.05060 | 164.18713 | 8167 ft | 275 kts | 303° |
| 2026-05-07 19:27 | -20.03999 | 164.17027 | 7966 ft | 274 kts | 303° |
| 2026-05-07 19:27 | -20.02913 | 164.15366 | 7764 ft | 274 kts | 304° |
| 2026-05-07 19:28 | -20.01816 | 164.13721 | 7564 ft | 274 kts | 304° |
| 2026-05-07 19:28 | -20.00717 | 164.12069 | 7362 ft | 274 kts | 305° |
| 2026-05-07 19:28 | -19.99671 | 164.10467 | 7169 ft | 275 kts | 305° |
| 2026-05-07 19:28 | -19.98583 | 164.08795 | 6968 ft | 275 kts | 304° |
| 2026-05-07 19:29 | -19.97495 | 164.07126 | 6767 ft | 275 kts | 304° |
| 2026-05-07 19:29 | -19.96404 | 164.05459 | 6566 ft | 275 kts | 304° |
| 2026-05-07 19:29 | -19.95313 | 164.03795 | 6366 ft | 275 kts | 304° |
| 2026-05-07 19:29 | -19.94218 | 164.02126 | 6164 ft | 275 kts | 305° |
| 2026-05-07 19:30 | -19.93196 | 164.00567 | 5976 ft | 275 kts | 305° |
| 2026-05-07 19:30 | -19.92106 | 163.98902 | 5776 ft | 275 kts | 305° |
| 2026-05-07 19:30 | -19.91014 | 163.97231 | 5574 ft | 275 kts | 305° |
| 2026-05-07 19:30 | -19.89922 | 163.95567 | 5374 ft | 276 kts | 305° |
| 2026-05-07 19:31 | -19.88817 | 163.93909 | 5173 ft | 274 kts | 306° |
| 2026-05-07 19:31 | -19.87727 | 163.92281 | 4971 ft | 268 kts | 306° |
| 2026-05-07 19:31 | -19.86657 | 163.90682 | 4767 ft | 264 kts | 306° |
| 2026-05-07 19:31 | -19.85604 | 163.89106 | 4565 ft | 261 kts | 306° |
| 2026-05-07 19:32 | -19.84569 | 163.87539 | 4365 ft | 259 kts | 306° |
| 2026-05-07 19:32 | -19.83547 | 163.85979 | 4163 ft | 257 kts | 306° |
| 2026-05-07 19:32 | -19.82532 | 163.84420 | 3923 ft | 257 kts | 306° |
| 2026-05-07 19:32 | -19.81519 | 163.82857 | 3673 ft | 258 kts | 306° |
| 2026-05-07 19:33 | -19.80509 | 163.81289 | 3421 ft | 258 kts | 306° |
| 2026-05-07 19:33 | -19.79502 | 163.79717 | 3171 ft | 259 kts | 306° |
| 2026-05-07 19:33 | -19.78495 | 163.78136 | 2921 ft | 259 kts | 306° |
| 2026-05-07 19:33 | -19.77489 | 163.76556 | 2672 ft | 259 kts | 306° |
| 2026-05-07 19:34 | -19.76482 | 163.74973 | 2422 ft | 259 kts | 306° |
| 2026-05-07 19:34 | -19.75309 | 163.73536 | 2178 ft | 256 kts | 320° |
| 2026-05-07 19:34 | -19.73873 | 163.72472 | 1982 ft | 248 kts | 303° |
| 2026-05-07 19:34 | -19.73186 | 163.70997 | 2010 ft | 217 kts | 265° |
| 2026-05-07 19:35 | -19.73703 | 163.69658 | 2024 ft | 201 kts | 204° |
| 2026-05-07 19:35 | -19.75046 | 163.69571 | 1687 ft | 201 kts | 150° |
| 2026-05-07 19:35 | -19.75803 | 163.70613 | 1659 ft | 186 kts | 88° |
| 2026-05-07 19:35 | -19.75096 | 163.71763 | 1260 ft | 211 kts | 34° |
| 2026-05-07 19:36 | -19.73637 | 163.71965 | 1424 ft | 206 kts | 354° |
| 2026-05-07 19:36 | -19.72565 | 163.71295 | 1710 ft | 162 kts | 283° |
| 2026-05-07 19:36 | -19.72397 | 163.70229 | 1377 ft | 143 kts | 250° |
| 2026-05-07 19:36 | -19.72538 | 163.69185 | 952 ft | 143 kts | 258° |
| 2026-05-07 19:37 | -19.72588 | 163.68268 | 763 ft | 117 kts | 266° |
| 2026-05-07 19:37 | -19.72467 | 163.67431 | 480 ft | 113 kts | 283° |
| 2026-05-07 19:37 | -19.72220 | 163.66659 | 338 ft | 108 kts | 287° |
| 2026-05-07 19:37 | -19.72010 | 163.65954 | 300 ft | 74 kts | 285° |
| 2026-05-07 19:38 | -19.71990 | 163.65877 | 300 ft | 0 kts | 288° |
| 2026-05-07 19:38 | -19.71987 | 163.65863 | 300 ft | 5 kts | 265° |
| 2026-05-07 19:38 | -19.71993 | 163.65851 | 300 ft | 0 kts | 221° |
| 2026-05-07 19:38 | -19.72014 | 163.65851 | 300 ft | 4 kts | 132° |
| 2026-05-07 19:39 | -19.72010 | 163.65886 | 300 ft | 12 kts | 57° |
| 2026-05-07 19:39 | -19.72013 | 163.65967 | 300 ft | 11 kts | 109° |
| 2026-05-07 19:39 | -19.72030 | 163.66056 | 300 ft | 14 kts | 75° |
| 2026-05-07 19:39 | -19.72000 | 163.66103 | 300 ft | 15 kts | 53° |
| 2026-05-07 19:40 | -19.71979 | 163.66198 | 300 ft | 11 kts | 109° |
| 2026-05-07 19:40 | -19.71970 | 163.66245 | 300 ft | 6 kts | 16° |
| 2026-05-07 19:40 | -19.71926 | 163.66250 | 300 ft | 3 kts | 11° |
| 2026-05-07 19:40 | -19.71905 | 163.66232 | 300 ft | 6 kts | 280° |
| 2026-05-07 19:41 | -19.71910 | 163.66210 | 300 ft | 0 kts | 251° |